Terminal Aerodrome Forecast
Issued by NWS

Home | Current Version | Previous Version | Text Only | Print | Product List | Glossary On
Versions: 1 2 3 4 5 6 7 8 9 10 11 12 13 14 15 16 17 18 19 20 21 22 23 24 25 26 27 28 29 30 31 32 33 34 35 36 37 38 39 40
289
FTUS45 KSLC 140536
TAFPVU
TAF
KPVU 140536Z 1406/1506 VRB03KT 1/4SM FZFG OVC002
      TEMPO 1407/1410 1SM BR
     FM141200 15004KT 1/2SM FG VCSH OVC005
     FM141900 VRB04KT 4SM BR SCT008 BKN060
     FM142300 30005KT 5SM BR VCSH BKN040 OVC060=

USA.gov is the U.S. government's official web portal to all federal, state and local government web resources and services.